Hachioji, Japan
Current Conditions -  °F | °C
As of 1:58 AM on Friday 31 Oct 2014 (Local Time) from RJTY Reporting Station
Broken Clouds Broken Clouds  
Wind Chill: 56°   Ceiling: 15000
Heat Index: 56°   Visibility: 10mi
Dew Point: 52°   Wind: 1mph
Humidity: 87%   Direction: 280°W
Pressure: 30.33"   Gusts: NA
Location:  35.66°N, 139.33°E
Report Text: RJTY 301658Z AUTO 28001KT 10SM BKN150 13/11 A3033 RMK AO2 SLP273 T01330111
Loading
Personal Weather Stations






























Interactive Weather Map
Tropical Storm Tracking
New forecast layout! Learn more

10-Day Weather Forecast

Advertisements
Track Severe Weather on mobile